Time;durP1;ratioP1;P1;durP2;ratioP2;P2;SDS_P1;SDS_P2;PMS_P1;PMS_P2;Temp;Humidity;BMP_temperature;BMP_pressure;BME280_temperature;BME280_humidity;BME280_pressure;Samples;Min_cycle;Max_cycle;Signal;HPM_P1;HPM_P2
2023/05/17 00:01:43;;;;;;;4.20;1.47;;;;;;;10.92;50.27;96426.16;4989868;28;20180;-69
2023/05/17 00:04:09;;;;;;;6.87;2.07;;;;;;;10.95;49.97;96422.56;4989319;28;20336;-68
2023/05/17 00:06:35;;;;;;;3.60;1.80;;;;;;;10.88;50.06;96426.38;4989111;28;20177;-68
2023/05/17 00:09:00;;;;;;;3.10;1.90;;;;;;;10.90;50.08;96424.53;4989419;28;20475;-69
2023/05/17 00:11:25;;;;;;;3.27;2.00;;;;;;;10.90;50.12;96429.78;4989394;28;20180;-68
2023/05/17 00:13:51;;;;;;;10.40;2.03;;;;;;;10.69;50.45;96424.56;4988867;28;20208;-66
2023/05/17 00:16:16;;;;;;;5.33;1.73;;;;;;;10.71;50.35;96427.13;4989351;28;20177;-67
2023/05/17 00:18:41;;;;;;;3.73;2.10;;;;;;;10.56;50.53;96426.88;4989277;28;20204;-66
2023/05/17 00:21:07;;;;;;;4.90;2.37;;;;;;;10.73;50.27;96423.50;4989470;28;20863;-67
2023/05/17 00:23:32;;;;;;;3.80;2.20;;;;;;;10.66;50.34;96427.31;4988718;28;20169;-70
2023/05/17 00:25:58;;;;;;;3.70;1.70;;;;;;;10.68;50.05;96422.03;4989204;28;20891;-68
2023/05/17 00:28:23;;;;;;;8.70;2.43;;;;;;;10.63;50.45;96430.09;4988954;28;20177;-67
2023/05/17 00:30:49;;;;;;;5.63;2.40;;;;;;;10.72;50.20;96432.28;4988879;28;20817;-67
2023/05/17 00:33:14;;;;;;;5.63;1.87;;;;;;;10.55;50.41;96437.44;4988853;28;20255;-68
2023/05/17 00:35:39;;;;;;;5.77;2.03;;;;;;;10.73;50.14;96435.78;4988536;28;20208;-67
2023/05/17 00:38:05;;;;;;;7.80;1.60;;;;;;;10.63;50.10;96435.34;4988919;28;20787;-69
2023/05/17 00:40:30;;;;;;;2.87;1.43;;;;;;;10.35;50.69;96443.53;4988761;28;20204;-69
2023/05/17 00:42:56;;;;;;;3.27;1.43;;;;;;;10.59;50.11;96436.38;4988610;28;20507;-67
2023/05/17 00:45:21;;;;;;;7.90;1.97;;;;;;;10.67;49.53;96443.91;4988477;28;20189;-67
2023/05/17 00:47:47;;;;;;;2.97;1.87;;;;;;;10.58;50.05;96445.16;4988593;28;20185;-67
2023/05/17 00:50:13;;;;;;;1.70;1.40;;;;;;;10.67;49.89;96447.38;4988867;28;20520;-67
2023/05/17 00:52:38;;;;;;;2.80;1.60;;;;;;;10.75;49.47;96445.28;5000594;28;20192;-70
2023/05/17 00:55:04;;;;;;;2.97;1.70;;;;;;;10.58;49.37;96447.78;5007878;28;20258;-68
2023/05/17 00:57:31;;;;;;;4.27;1.60;;;;;;;10.58;50.10;96453.03;5008076;28;20949;-69
2023/05/17 00:59:57;;;;;;;7.93;1.80;;;;;;;10.60;49.90;96461.69;5007953;28;20521;-66
2023/05/17 01:02:23;;;;;;;13.30;2.50;;;;;;;10.43;50.38;96459.78;5007902;28;20418;-71
2023/05/17 01:04:49;;;;;;;2.90;1.40;;;;;;;10.51;49.57;96457.72;5007754;28;20469;-66
2023/05/17 01:07:16;;;;;;;10.27;2.13;;;;;;;10.53;49.63;96465.50;5008053;28;20248;-69
2023/05/17 01:09:42;;;;;;;4.77;1.90;;;;;;;10.37;49.89;96463.53;5007856;28;20411;-66
2023/05/17 01:12:32;;;;;;;5.00;1.73;;;;;;;10.43;49.80;96474.69;5007886;28;20465;-69
2023/05/17 01:15:12;;;;;;;3.27;1.73;;;;;;;10.51;49.47;96472.56;5007607;28;20454;-69
2023/05/17 01:18:06;;;;;;;3.90;1.83;;;;;;;10.41;49.62;96471.28;5007875;28;20403;-67
2023/05/17 01:20:42;;;;;;;3.87;1.70;;;;;;;10.45;49.54;96473.69;5007687;28;20458;-67
2023/05/17 01:23:34;;;;;;;7.00;2.00;;;;;;;10.28;50.42;96477.03;5007813;28;20410;-67
2023/05/17 01:26:07;;;;;;;1.90;1.67;;;;;;;10.33;50.45;96476.84;5007839;28;20398;-67
2023/05/17 01:28:37;;;;;;;2.80;1.80;;;;;;;10.20;50.14;96473.81;5007822;28;20476;-69
2023/05/17 01:31:03;;;;;;;3.50;2.23;;;;;;;10.19;50.52;96487.88;5007666;28;20438;-68
2023/05/17 01:33:28;;;;;;;5.63;1.77;;;;;;;9.97;51.14;96493.13;5007305;28;20443;-67
2023/05/17 01:35:54;;;;;;;6.47;1.93;;;;;;;9.86;51.50;96488.31;5007565;28;20215;-67
2023/05/17 01:38:19;;;;;;;3.37;1.60;;;;;;;10.03;51.50;96490.25;5007423;28;20712;-70
2023/05/17 01:41:08;;;;;;;3.00;1.87;;;;;;;10.09;50.61;96491.78;5007720;28;20267;-66
2023/05/17 01:43:41;;;;;;;5.20;2.20;;;;;;;10.12;50.67;96482.03;5007352;28;20177;-65
2023/05/17 01:46:15;;;;;;;2.40;2.20;;;;;;;10.03;50.89;96486.78;5008156;28;20427;-67
2023/05/17 01:48:48;;;;;;;3.60;1.67;;;;;;;9.84;51.61;96492.75;5014005;28;20435;-70
2023/05/17 01:51:17;;;;;;;3.43;1.90;;;;;;;9.58;52.51;96482.44;5017043;28;20485;-66
2023/05/17 01:53:51;;;;;;;4.33;1.93;;;;;;;9.67;52.02;96495.19;4995076;28;20440;-67
2023/05/17 01:56:20;;;;;;;3.90;1.77;;;;;;;9.61;52.20;96495.41;4992223;28;20415;-69
2023/05/17 01:58:47;;;;;;;3.47;1.77;;;;;;;9.87;51.70;96489.16;4987910;28;20803;-70
2023/05/17 02:01:18;;;;;;;7.50;2.20;;;;;;;9.91;52.10;96494.22;4988272;28;20777;-70
2023/05/17 02:03:48;;;;;;;7.33;2.47;;;;;;;9.98;52.29;96494.00;4987775;28;20474;-69
2023/05/17 02:06:14;;;;;;;4.77;1.97;;;;;;;9.71;52.32;96504.66;4987981;28;20416;-67
2023/05/17 02:08:39;;;;;;;3.57;2.17;;;;;;;9.86;52.16;96496.19;4987960;28;20416;-68
2023/05/17 02:11:05;;;;;;;2.87;1.80;;;;;;;9.98;51.79;96500.06;4988391;28;20257;-68
2023/05/17 02:13:30;;;;;;;6.33;1.70;;;;;;;10.07;52.15;96496.25;4987811;28;20260;-68
2023/05/17 02:15:59;;;;;;;3.43;1.80;;;;;;;10.02;52.13;96491.19;4987899;28;20177;-66
2023/05/17 02:18:25;;;;;;;4.93;2.17;;;;;;;10.10;51.93;96496.13;4987844;28;20173;-68
2023/05/17 02:20:50;;;;;;;7.40;1.90;;;;;;;9.95;52.26;96494.97;4987955;28;20416;-70
2023/05/17 02:23:16;;;;;;;4.03;1.90;;;;;;;10.00;52.13;96494.78;4987895;28;20251;-65
2023/05/17 02:25:43;;;;;;;3.23;1.77;;;;;;;10.08;51.74;96496.16;4988103;28;20192;-66
2023/05/17 02:28:08;;;;;;;7.43;2.43;;;;;;;9.88;52.26;96501.38;4988245;28;20606;-67
2023/05/17 02:30:33;;;;;;;3.30;2.20;;;;;;;9.93;52.14;96491.53;4991194;28;20479;-67
2023/05/17 02:32:59;;;;;;;4.20;2.03;;;;;;;10.01;52.20;96499.09;4991034;28;20175;-69
2023/05/17 02:35:24;;;;;;;3.83;1.90;;;;;;;10.12;51.07;96492.50;4990439;28;20189;-65
2023/05/17 02:37:50;;;;;;;4.73;1.90;;;;;;;9.87;51.81;96490.00;4991117;28;20642;-68
2023/05/17 02:40:16;;;;;;;5.30;1.77;;;;;;;9.73;52.18;96498.44;4990769;28;20258;-68
2023/05/17 02:42:41;;;;;;;3.00;1.67;;;;;;;9.84;52.44;96494.53;4990837;28;20173;-69
2023/05/17 02:45:07;;;;;;;8.27;2.10;;;;;;;9.79;52.24;96496.47;4990129;28;20789;-65
2023/05/17 02:47:32;;;;;;;3.10;1.40;;;;;;;9.86;52.18;96497.94;4990584;28;20223;-68
2023/05/17 02:49:58;;;;;;;3.50;1.90;;;;;;;9.50;52.33;96499.31;4990782;28;20226;-68
2023/05/17 02:52:23;;;;;;;4.87;1.77;;;;;;;9.54;52.47;96500.03;4999563;28;20664;-69
2023/05/17 02:54:49;;;;;;;4.37;2.00;;;;;;;9.61;51.99;96495.41;5009719;28;20676;-69
2023/05/17 02:57:14;;;;;;;6.60;2.17;;;;;;;9.63;51.87;96488.34;5010189;28;20550;-67
2023/05/17 02:59:39;;;;;;;3.03;1.83;;;;;;;9.45;52.43;96503.88;5010134;28;20866;-68
2023/05/17 03:02:05;;;;;;;8.90;2.50;;;;;;;9.59;51.89;96505.09;5009923;28;20225;-66
2023/05/17 03:04:32;;;;;;;3.03;1.83;;;;;;;9.54;51.94;96507.91;5009732;28;20250;-68
2023/05/17 03:06:57;;;;;;;3.47;1.40;;;;;;;9.45;51.99;96498.63;5009827;28;20164;-67
2023/05/17 03:09:23;;;;;;;2.40;1.80;;;;;;;9.39;52.80;96505.88;5009864;28;20414;-69
2023/05/17 03:11:48;;;;;;;3.40;1.70;;;;;;;9.14;53.06;96516.38;5009699;28;20172;-68
2023/05/17 03:14:13;;;;;;;4.30;1.83;;;;;;;9.07;52.68;96518.38;5009336;28;20190;-66
2023/05/17 03:16:39;;;;;;;3.77;2.17;;;;;;;9.15;52.79;96524.19;5009547;28;20255;-68
2023/05/17 03:19:05;;;;;;;17.70;3.43;;;;;;;9.27;52.27;96522.88;5009827;28;20676;-68
2023/05/17 03:21:30;;;;;;;3.00;2.13;;;;;;;9.00;53.80;96535.19;5009800;28;20177;-69
2023/05/17 03:23:56;;;;;;;3.70;2.30;;;;;;;9.08;53.39;96527.94;5009341;28;20195;-67
2023/05/17 03:26:22;;;;;;;3.30;1.63;;;;;;;8.88;53.84;96526.91;5009167;28;20202;-66
2023/05/17 03:28:48;;;;;;;3.47;1.80;;;;;;;9.09;52.79;96529.63;5009731;28;20416;-68
2023/05/17 03:31:14;;;;;;;7.80;2.37;;;;;;;9.18;53.13;96531.06;5010061;28;20407;-66
2023/05/17 03:33:39;;;;;;;5.20;1.90;;;;;;;9.02;53.19;96539.47;5009245;28;20203;-68
2023/05/17 03:36:06;;;;;;;4.00;1.60;;;;;;;9.23;53.38;96531.75;5009634;28;20927;-70
2023/05/17 03:38:31;;;;;;;4.97;2.10;;;;;;;9.28;52.10;96541.19;5009248;28;20366;-67
2023/05/17 03:40:57;;;;;;;4.13;2.27;;;;;;;9.43;51.96;96545.00;5008301;28;20412;-67
2023/05/17 03:43:22;;;;;;;4.50;1.77;;;;;;;9.30;52.68;96547.19;5009397;28;20172;-70
2023/05/17 03:45:47;;;;;;;3.20;1.57;;;;;;;9.29;52.50;96537.63;5009403;28;20263;-68
2023/05/17 03:48:13;;;;;;;5.17;1.97;;;;;;;9.28;52.61;96549.03;5009479;28;20175;-70
2023/05/17 03:50:39;;;;;;;3.30;1.63;;;;;;;8.99;53.51;96555.28;5009258;28;20160;-66
2023/05/17 03:53:05;;;;;;;5.30;1.93;;;;;;;8.93;52.94;96550.28;4993251;28;20286;-68
2023/05/17 03:55:31;;;;;;;4.97;1.80;;;;;;;8.55;54.53;96560.31;4989194;28;20431;-66
2023/05/17 03:57:56;;;;;;;7.13;1.97;;;;;;;8.84;53.95;96563.69;4989632;28;20247;-68
2023/05/17 04:00:22;;;;;;;5.93;2.07;;;;;;;8.78;53.52;96561.28;4989344;28;20228;-68
2023/05/17 04:02:47;;;;;;;5.80;2.40;;;;;;;8.70;54.67;96564.16;4989637;28;20256;-69
2023/05/17 04:05:13;;;;;;;8.73;2.03;;;;;;;8.55;54.55;96572.50;4989067;28;20200;-69
2023/05/17 04:07:38;;;;;;;6.90;2.53;;;;;;;8.53;55.23;96577.81;4989348;28;20573;-67
2023/05/17 04:10:04;;;;;;;4.83;2.07;;;;;;;8.72;55.09;96577.16;4989443;28;20169;-68
2023/05/17 04:12:30;;;;;;;4.70;2.33;;;;;;;8.56;54.77;96576.84;5004301;28;20176;-69
2023/05/17 04:14:55;;;;;;;13.77;3.30;;;;;;;8.66;54.86;96578.25;4989089;28;20432;-68
2023/05/17 04:17:21;;;;;;;4.03;2.30;;;;;;;8.70;54.65;96582.47;4989463;28;20173;-67
2023/05/17 04:19:46;;;;;;;9.37;3.27;;;;;;;8.54;54.86;96574.25;4989071;28;20201;-67
2023/05/17 04:22:12;;;;;;;2.23;1.70;;;;;;;8.44;55.24;96591.19;4989138;28;20796;-69
2023/05/17 04:24:37;;;;;;;3.50;2.40;;;;;;;8.68;54.89;96587.75;4988742;28;20200;-66
2023/05/17 04:27:03;;;;;;;4.40;2.10;;;;;;;8.59;55.32;96588.03;4989341;28;20180;-69
2023/05/17 04:29:29;;;;;;;3.17;2.33;;;;;;;8.68;54.83;96594.75;4989158;28;20605;-67
2023/05/17 04:31:55;;;;;;;6.27;1.90;;;;;;;8.84;54.79;96593.31;5009742;28;20211;-68
2023/05/17 04:34:23;;;;;;;4.37;1.93;;;;;;;8.76;54.15;96600.56;5011266;28;20617;-70
2023/05/17 04:36:49;;;;;;;7.00;2.10;;;;;;;8.97;53.72;96595.50;5018312;28;20177;-68
2023/05/17 04:39:16;;;;;;;4.60;4.20;;;;;;;8.95;53.52;96592.94;5013737;28;20457;-68
2023/05/17 04:41:41;;;;;;;6.77;2.03;;;;;;;9.06;54.35;96597.81;5009127;28;20529;-65
2023/05/17 04:44:07;;;;;;;6.80;2.40;;;;;;;9.21;53.50;96601.66;5006602;28;20462;-67
2023/05/17 04:46:32;;;;;;;11.53;2.20;;;;;;;9.35;53.40;96604.63;5008086;28;20212;-69
2023/05/17 04:48:59;;;;;;;5.23;2.60;;;;;;;9.01;54.09;96600.59;5006672;28;20194;-65
2023/05/17 04:51:25;;;;;;;5.13;1.90;;;;;;;9.26;53.21;96607.56;5007772;28;20180;-65
2023/05/17 04:53:51;;;;;;;2.47;1.77;;;;;;;8.88;54.24;96610.63;5007872;28;20474;-66
2023/05/17 04:56:17;;;;;;;3.63;2.10;;;;;;;9.01;54.09;96611.06;5008794;28;20447;-69
2023/05/17 04:58:43;;;;;;;4.03;1.83;;;;;;;8.95;54.81;96613.88;5008118;28;20199;-70
2023/05/17 05:01:08;;;;;;;5.00;2.20;;;;;;;9.10;54.54;96607.28;5008209;28;20403;-68
2023/05/17 05:03:33;;;;;;;19.70;2.87;;;;;;;9.04;54.62;96616.19;5008062;28;20179;-67
2023/05/17 05:05:59;;;;;;;8.53;3.30;;;;;;;9.04;54.47;96615.34;4998319;28;20184;-70
2023/05/17 05:08:24;;;;;;;8.40;2.53;;;;;;;9.26;54.72;96616.31;4988452;28;20176;-68
2023/05/17 05:10:50;;;;;;;9.70;2.73;;;;;;;9.43;53.55;96615.72;4988416;28;20200;-66
2023/05/17 05:13:16;;;;;;;8.23;2.87;;;;;;;9.41;53.18;96622.75;4988380;28;20223;-69
2023/05/17 05:15:41;;;;;;;11.30;2.57;;;;;;;9.32;54.01;96626.56;5007329;28;20248;-69
2023/05/17 05:18:07;;;;;;;4.60;1.70;;;;;;;9.27;54.12;96632.88;5005402;28;20431;-68
2023/05/17 05:20:32;;;;;;;7.40;1.80;;;;;;;9.33;54.05;96630.06;5006886;28;20688;-71
2023/05/17 05:22:59;;;;;;;5.10;2.10;;;;;;;9.51;53.34;96636.38;5006013;28;20544;-69
2023/05/17 05:25:25;;;;;;;9.43;2.90;;;;;;;9.68;52.82;96634.00;5001129;28;20207;-69
2023/05/17 05:27:51;;;;;;;12.23;4.13;;;;;;;9.77;52.88;96637.22;5003958;28;20856;-69
2023/05/17 05:30:20;;;;;;;12.80;2.60;;;;;;;9.79;53.16;96638.00;5006362;28;20727;-69
2023/05/17 05:32:48;;;;;;;9.10;2.73;;;;;;;9.62;53.03;96641.25;5007029;28;20172;-68
2023/05/17 05:35:13;;;;;;;15.90;4.30;;;;;;;9.99;52.40;96642.50;5007336;28;20470;-69
2023/05/17 05:37:39;;;;;;;3.40;2.20;;;;;;;10.02;51.80;96637.16;5007522;28;20850;-69
2023/05/17 05:40:05;;;;;;;10.50;2.60;;;;;;;10.11;52.29;96636.78;5006908;28;20222;-69
2023/05/17 05:42:30;;;;;;;3.73;2.00;;;;;;;10.25;51.68;96638.88;5007867;28;20180;-70
2023/05/17 05:44:56;;;;;;;14.23;3.40;;;;;;;10.07;52.39;96648.31;5007152;28;21003;-70
2023/05/17 05:47:22;;;;;;;8.53;2.53;;;;;;;10.50;51.15;96655.41;5016220;28;20211;-70
2023/05/17 05:49:48;;;;;;;5.20;2.50;;;;;;;10.51;51.06;96649.25;5025897;28;20919;-68
2023/05/17 05:52:13;;;;;;;2.67;2.00;;;;;;;10.28;51.40;96655.41;5016556;28;20169;-68
2023/05/17 05:54:38;;;;;;;4.90;2.30;;;;;;;10.60;51.06;96656.75;5006063;28;20278;-68
2023/05/17 05:57:04;;;;;;;3.60;2.27;;;;;;;10.46;51.17;96655.59;5005939;28;20211;-67
2023/05/17 05:59:29;;;;;;;4.90;2.20;;;;;;;10.94;50.30;96659.78;5006149;28;20204;-68
2023/05/17 06:01:55;;;;;;;4.90;1.93;;;;;;;11.17;49.38;96651.81;5007639;28;20176;-68
2023/05/17 06:04:20;;;;;;;4.90;1.83;;;;;;;11.20;49.17;96656.94;5008105;28;20204;-67
2023/05/17 06:06:45;;;;;;;28.07;6.13;;;;;;;11.15;49.65;96658.03;5010768;28;20176;-67
2023/05/17 06:09:11;;;;;;;13.57;2.80;;;;;;;10.89;50.13;96665.22;5010079;28;20571;-68
2023/05/17 06:11:37;;;;;;;4.80;2.37;;;;;;;10.91;49.78;96660.75;5010224;28;20172;-69
2023/05/17 06:14:03;;;;;;;5.50;2.27;;;;;;;11.32;48.77;96662.59;5009713;28;20230;-67
2023/05/17 06:16:28;;;;;;;9.53;2.30;;;;;;;11.19;49.49;96665.72;5010467;28;20446;-67
2023/05/17 06:18:53;;;;;;;4.80;2.50;;;;;;;11.35;49.76;96671.19;5010153;28;20586;-67
2023/05/17 06:21:19;;;;;;;3.90;2.23;;;;;;;11.24;49.14;96673.41;5010733;28;20168;-69
2023/05/17 06:23:44;;;;;;;6.43;2.87;;;;;;;11.07;49.89;96676.72;5010222;28;20222;-70
2023/05/17 06:26:10;;;;;;;4.87;2.40;;;;;;;11.52;48.96;96664.34;5010746;28;20243;-69
2023/05/17 06:28:38;;;;;;;9.63;2.77;;;;;;;11.52;48.90;96673.06;5011237;28;20263;-70
2023/05/17 06:31:03;;;;;;;5.77;1.90;;;;;;;11.96;48.00;96670.31;5010310;28;20295;-69
2023/05/17 06:33:29;;;;;;;5.67;2.27;;;;;;;11.46;48.90;96673.34;5009477;28;20512;-70
2023/05/17 06:35:55;;;;;;;11.47;3.20;;;;;;;12.24;47.97;96674.31;5009747;28;20208;-71
2023/05/17 06:38:21;;;;;;;5.30;2.80;;;;;;;12.57;46.10;96671.88;5010032;28;20267;-69
2023/05/17 06:40:50;;;;;;;6.20;2.20;;;;;;;12.37;47.20;96669.31;5009957;28;21227;-69
2023/05/17 06:43:16;;;;;;;5.47;2.33;;;;;;;12.58;46.38;96668.31;5009580;28;20183;-70
2023/05/17 06:45:41;;;;;;;4.60;2.47;;;;;;;11.80;47.27;96677.97;5009897;28;20442;-70
2023/05/17 06:48:07;;;;;;;5.73;2.00;;;;;;;11.60;47.64;96680.66;5010124;28;20641;-71
2023/05/17 06:50:32;;;;;;;8.13;2.33;;;;;;;11.74;47.37;96682.66;5008713;28;20176;-71
2023/05/17 06:52:57;;;;;;;5.93;2.27;;;;;;;11.42;48.01;96687.53;4995079;28;20189;-70
2023/05/17 06:55:23;;;;;;;3.07;2.10;;;;;;;11.52;47.71;96688.00;4990398;28;20259;-70
2023/05/17 06:57:48;;;;;;;8.60;2.13;;;;;;;11.29;47.81;96683.72;4990690;28;20181;-69
2023/05/17 07:00:14;;;;;;;7.03;2.07;;;;;;;12.32;46.07;96680.06;4990493;28;20201;-71
2023/05/17 07:02:39;;;;;;;4.93;2.03;;;;;;;12.33;46.00;96676.53;4990706;28;20173;-70
2023/05/17 07:05:05;;;;;;;5.93;2.47;;;;;;;11.29;48.26;96683.72;4990177;28;20260;-69
2023/05/17 07:07:31;;;;;;;7.50;2.13;;;;;;;11.35;48.05;96676.44;4991979;28;20181;-68
2023/05/17 07:09:56;;;;;;;6.00;2.80;;;;;;;11.84;47.37;96684.81;4991538;28;20180;-68
2023/05/17 07:12:22;;;;;;;6.73;2.70;;;;;;;11.60;46.91;96689.38;4990727;28;20173;-70
2023/05/17 07:14:47;;;;;;;7.43;2.20;;;;;;;12.08;46.17;96688.16;4989450;28;20232;-69
2023/05/17 07:17:12;;;;;;;3.93;1.83;;;;;;;12.42;45.75;96691.00;4989940;28;20211;-69
2023/05/17 07:19:38;;;;;;;4.47;2.37;;;;;;;12.32;45.75;96685.31;4990509;28;20196;-69
2023/05/17 07:22:04;;;;;;;4.73;2.70;;;;;;;12.66;45.36;96686.38;4990157;28;20538;-69
2023/05/17 07:24:29;;;;;;;7.13;2.33;;;;;;;12.84;44.79;96689.91;5004259;28;20189;-69
2023/05/17 07:26:55;;;;;;;4.33;2.47;;;;;;;12.98;44.13;96683.97;4989489;28;20985;-71
2023/05/17 07:29:20;;;;;;;3.40;2.27;;;;;;;13.01;44.71;96689.09;4989580;28;20196;-68
2023/05/17 07:31:46;;;;;;;9.70;2.50;;;;;;;13.41;43.45;96673.97;4989240;28;20185;-70
2023/05/17 07:34:12;;;;;;;8.60;2.63;;;;;;;13.47;42.53;96677.13;4989316;28;20212;-69
2023/05/17 07:36:37;;;;;;;7.10;2.20;;;;;;;13.75;42.57;96678.38;4989561;28;20243;-70
2023/05/17 07:39:04;;;;;;;3.70;2.23;;;;;;;13.87;41.47;96690.06;4989172;28;20481;-69
2023/05/17 07:41:30;;;;;;;9.50;3.03;;;;;;;14.42;40.39;96687.09;4989363;28;20208;-70
2023/05/17 07:43:56;;;;;;;6.30;2.40;;;;;;;14.55;40.16;96677.59;4988860;28;20847;-70
2023/05/17 07:46:21;;;;;;;12.23;2.90;;;;;;;14.16;41.11;96688.50;4989208;28;20580;-68
2023/05/17 07:48:47;;;;;;;5.50;2.50;;;;;;;12.83;44.05;96693.50;4989208;28;20173;-69
2023/05/17 07:51:12;;;;;;;7.03;2.50;;;;;;;12.60;44.49;96702.47;4989508;28;20168;-69
2023/05/17 07:53:38;;;;;;;13.63;3.40;;;;;;;12.42;45.38;96696.28;5008477;28;20230;-70
2023/05/17 07:56:03;;;;;;;8.17;3.60;;;;;;;13.06;44.74;96689.72;5008561;28;20173;-70
2023/05/17 07:58:29;;;;;;;6.37;3.00;;;;;;;13.54;44.13;96690.88;5008459;28;20252;-70
2023/05/17 08:00:55;;;;;;;7.63;2.67;;;;;;;13.40;43.07;96702.13;5008387;28;20230;-70
2023/05/17 08:03:20;;;;;;;8.57;2.70;;;;;;;13.27;42.39;96693.94;5008349;28;20510;-71
2023/05/17 08:05:45;;;;;;;5.83;2.60;;;;;;;13.31;46.31;96697.31;5008001;28;20278;-68
2023/05/17 08:08:11;;;;;;;7.23;2.73;;;;;;;13.67;44.14;96681.38;5008787;28;20168;-69
2023/05/17 08:10:36;;;;;;;8.63;3.80;;;;;;;13.59;46.03;96702.03;5006531;28;20712;-70
2023/05/17 08:13:05;;;;;;;7.03;2.47;;;;;;;14.10;50.60;96702.03;5005993;28;20168;-71
2023/05/17 08:15:30;;;;;;;24.77;4.20;;;;;;;14.11;51.36;96701.09;4990185;28;20244;-70
2023/05/17 08:17:56;;;;;;;23.47;4.50;;;;;;;14.81;40.44;96691.13;5011735;28;20498;-71
2023/05/17 08:20:21;;;;;;;4.07;2.70;;;;;;;14.05;40.58;96704.91;5027310;28;20562;-70
2023/05/17 08:22:46;;;;;;;5.00;2.53;;;;;;;14.62;39.60;96691.31;5009529;28;20272;-70
2023/05/17 08:25:12;;;;;;;3.87;2.30;;;;;;;14.15;39.73;96689.47;5008605;28;20196;-70
2023/05/17 08:27:39;;;;;;;9.90;3.17;;;;;;;14.53;39.70;96703.22;5008427;28;20183;-71
2023/05/17 08:30:07;;;;;;;6.80;2.23;;;;;;;14.27;40.04;96703.75;5012752;28;20172;-70
2023/05/17 08:32:32;;;;;;;4.77;2.17;;;;;;;13.18;42.61;96717.25;5021750;28;20912;-70
2023/05/17 08:34:58;;;;;;;6.10;2.90;;;;;;;12.84;42.39;96706.56;5018186;28;20427;-69
2023/05/17 08:37:23;;;;;;;6.60;2.60;;;;;;;12.97;43.19;96711.22;5016882;28;20187;-71
2023/05/17 08:39:50;;;;;;;3.97;2.33;;;;;;;13.72;42.20;96708.41;5014528;28;20200;-69
2023/05/17 08:42:20;;;;;;;5.97;2.30;;;;;;;13.44;41.26;96721.25;5008367;28;20199;-67
2023/05/17 08:44:46;;;;;;;10.03;2.60;;;;;;;14.02;40.59;96709.50;5007573;28;20431;-70
2023/05/17 08:47:24;;;;;;;5.00;2.63;;;;;;;14.09;40.50;96713.53;5007288;28;20434;-68
2023/05/17 08:49:50;;;;;;;9.17;2.80;;;;;;;14.36;39.20;96705.91;5008805;28;20213;-69
2023/05/17 08:52:16;;;;;;;6.80;2.10;;;;;;;13.85;40.00;96710.38;5006095;28;20420;-70
2023/05/17 08:54:41;;;;;;;10.10;2.83;;;;;;;14.45;39.90;96715.97;4995416;28;20553;-70
2023/05/17 08:57:10;;;;;;;5.43;2.33;;;;;;;13.52;40.71;96713.81;5015581;28;20180;-69
2023/05/17 08:59:37;;;;;;;3.77;2.40;;;;;;;13.73;39.74;96711.88;5007224;28;20664;-71
2023/05/17 09:02:04;;;;;;;8.43;3.03;;;;;;;12.78;41.28;96711.25;5005729;28;20429;-70
2023/05/17 09:04:30;;;;;;;5.57;2.37;;;;;;;12.34;41.43;96706.31;5000191;28;20456;-70
2023/05/17 09:06:56;;;;;;;8.20;2.90;;;;;;;12.78;41.77;96719.16;4986830;28;20423;-69
2023/05/17 09:09:22;;;;;;;7.80;3.40;;;;;;;13.12;41.69;96710.50;4987633;28;20165;-70
2023/05/17 09:11:48;;;;;;;7.63;3.17;;;;;;;13.12;41.79;96708.72;4988567;28;20192;-69
2023/05/17 09:14:16;;;;;;;5.10;2.57;;;;;;;12.65;43.12;96718.91;4988054;28;20443;-71
2023/05/17 09:16:42;;;;;;;7.50;2.57;;;;;;;12.58;43.06;96718.34;4988405;28;20172;-71
2023/05/17 09:19:13;;;;;;;3.53;2.27;;;;;;;13.02;40.38;96714.53;4987963;28;20461;-69
2023/05/17 09:21:39;;;;;;;5.13;2.43;;;;;;;13.30;41.01;96722.81;4988356;28;20748;-70
2023/05/17 09:24:05;;;;;;;3.10;2.40;;;;;;;12.88;41.54;96725.72;4987685;28;20524;-69
2023/05/17 09:26:44;;;;;;;7.33;2.60;;;;;;;12.78;41.38;96732.34;4988092;28;20174;-69
2023/05/17 09:29:12;;;;;;;4.50;2.70;;;;;;;12.45;40.63;96722.47;4988187;28;20705;-69
2023/05/17 09:31:39;;;;;;;4.50;2.33;;;;;;;12.13;42.40;96731.81;4987994;28;20412;-69
2023/05/17 09:34:06;;;;;;;6.40;2.77;;;;;;;12.31;41.32;96727.50;4987809;28;20455;-71
2023/05/17 09:36:35;;;;;;;4.60;2.80;;;;;;;11.83;42.09;96732.22;4987967;28;20458;-70
2023/05/17 09:39:06;;;;;;;3.83;2.50;;;;;;;12.28;42.39;96731.13;4991329;28;20459;-69
2023/05/17 09:41:40;;;;;;;8.80;3.20;;;;;;;12.67;41.93;96723.16;4990744;28;20486;-70
2023/05/17 09:44:10;;;;;;;5.27;2.77;;;;;;;13.01;41.42;96723.34;4992250;28;20431;-70
2023/05/17 09:46:40;;;;;;;10.80;2.50;;;;;;;13.01;41.37;96732.09;4992174;28;20425;-69
2023/05/17 09:49:06;;;;;;;9.90;3.00;;;;;;;13.36;41.53;96729.53;4992080;28;20404;-68
2023/05/17 09:51:35;;;;;;;5.13;2.70;;;;;;;13.33;39.62;96729.72;4994619;28;20422;-70
2023/05/17 09:54:01;;;;;;;9.67;3.40;;;;;;;13.92;39.89;96727.59;5011091;28;20188;-69
2023/05/17 09:56:28;;;;;;;7.00;3.13;;;;;;;13.64;40.05;96730.81;5011252;28;20472;-70
2023/05/17 09:58:54;;;;;;;7.23;4.10;;;;;;;13.58;39.83;96726.69;5011222;28;20246;-70
2023/05/17 10:01:21;;;;;;;12.33;6.13;;;;;;;14.03;39.62;96729.66;5010916;28;20427;-70
2023/05/17 10:03:47;;;;;;;11.70;2.80;;;;;;;14.18;39.59;96724.44;5010628;28;20203;-69
2023/05/17 10:06:17;;;;;;;6.33;3.57;;;;;;;14.10;38.82;96729.28;5010810;28;20410;-69
2023/05/17 10:08:45;;;;;;;6.47;3.30;;;;;;;13.65;39.83;96728.06;5010837;28;20605;-68
2023/05/17 10:11:10;;;;;;;5.23;3.10;;;;;;;13.72;40.33;96733.88;5009256;28;20415;-70
2023/05/17 10:13:45;;;;;;;3.43;3.13;;;;;;;13.63;40.63;96735.22;5010264;28;20529;-69
2023/05/17 10:16:11;;;;;;;4.03;3.33;;;;;;;13.28;40.81;96732.56;5011189;28;20179;-70
2023/05/17 10:18:39;;;;;;;6.60;3.30;;;;;;;12.77;41.12;96731.47;5010822;28;20415;-69
2023/05/17 10:21:06;;;;;;;10.33;3.70;;;;;;;13.12;42.00;96723.69;5010391;28;20410;-69
2023/05/17 10:23:33;;;;;;;5.57;3.50;;;;;;;13.60;39.43;96724.81;5010317;28;20415;-69
2023/05/17 10:26:00;;;;;;;5.47;2.50;;;;;;;14.12;38.43;96719.47;5011167;28;20411;-70
2023/05/17 10:28:26;;;;;;;9.00;4.33;;;;;;;14.55;38.12;96713.69;5010426;28;20407;-70
2023/05/17 10:30:52;;;;;;;4.70;3.40;;;;;;;14.32;38.42;96714.94;5010587;28;20473;-70
2023/05/17 10:33:20;;;;;;;7.30;3.80;;;;;;;13.84;39.00;96721.84;5010394;28;20948;-70
2023/05/17 10:35:46;;;;;;;6.77;3.40;;;;;;;13.70;39.72;96722.56;5010475;28;20430;-69
2023/05/17 10:38:12;;;;;;;12.10;4.60;;;;;;;14.01;39.08;96716.56;5010563;28;20449;-71
2023/05/17 10:40:39;;;;;;;11.03;3.60;;;;;;;14.09;39.82;96727.56;5010509;28;20559;-70
2023/05/17 10:43:07;;;;;;;7.57;4.07;;;;;;;13.69;39.97;96712.97;5010646;28;20215;-69
2023/05/17 10:45:32;;;;;;;19.87;4.70;;;;;;;14.24;39.74;96711.84;5009892;28;20419;-70
2023/05/17 10:48:00;;;;;;;8.70;2.80;;;;;;;14.90;37.92;96708.25;5009899;28;20434;-72
2023/05/17 10:50:25;;;;;;;6.90;2.70;;;;;;;14.68;37.11;96711.25;5009401;28;20175;-69
2023/05/17 10:52:54;;;;;;;4.80;3.43;;;;;;;14.71;36.86;96704.00;4996596;28;20420;-70
2023/05/17 10:55:24;;;;;;;5.00;2.90;;;;;;;14.56;38.00;96699.59;4990577;28;20436;-69
2023/05/17 10:58:15;;;;;;;5.30;3.10;;;;;;;14.68;36.85;96703.34;4991396;28;20498;-70
2023/05/17 11:00:46;;;;;;;9.00;4.37;;;;;;;14.49;37.42;96698.19;4991701;28;20466;-70
2023/05/17 11:03:19;;;;;;;7.40;3.47;;;;;;;14.54;38.19;96706.72;4990810;28;20436;-69
2023/05/17 11:06:17;;;;;;;4.30;2.87;;;;;;;14.22;39.26;96704.03;4991182;28;20424;-69
2023/05/17 11:09:14;;;;;;;10.27;3.50;;;;;;;14.15;38.43;96702.66;4991882;28;20448;-68
2023/05/17 11:12:03;;;;;;;7.07;3.27;;;;;;;14.26;38.40;96697.63;4991268;28;20439;-70
2023/05/17 11:14:43;;;;;;;4.90;3.30;;;;;;;14.75;38.08;96696.78;4990581;28;20851;-69
2023/05/17 11:17:18;;;;;;;7.30;3.30;;;;;;;14.46;37.69;96693.94;4990298;28;20774;-71
2023/05/17 11:19:53;;;;;;;5.07;3.20;;;;;;;14.31;36.16;96690.31;4990373;28;21045;-68
2023/05/17 11:22:21;;;;;;;6.23;3.80;;;;;;;14.14;37.52;96693.84;4990068;28;20543;-69
2023/05/17 11:24:52;;;;;;;4.07;3.00;;;;;;;13.68;37.69;96683.09;4989735;28;20443;-70
2023/05/17 11:27:19;;;;;;;5.63;3.70;;;;;;;14.04;38.36;96676.81;4990165;28;20411;-70
2023/05/17 11:29:47;;;;;;;6.50;3.53;;;;;;;14.20;37.73;96679.50;4990079;28;20408;-70
2023/05/17 11:32:12;;;;;;;7.23;3.50;;;;;;;14.26;37.20;96680.94;4999469;28;20412;-70
2023/05/17 11:34:38;;;;;;;7.00;3.70;;;;;;;14.33;37.29;96677.88;5005577;28;20496;-70